sensor_id;sensor_type;location;lat;lon;timestamp;pressure;altitude;pressure_sealevel;temperature;humidity
56737;BME280;42618;51.226;4.910;2022-07-29T00:02:24;49388.13;;;-146.94;51.56
56737;BME280;42618;51.226;4.910;2022-07-29T00:04:51;49404.06;;;-146.94;51.85
56737;BME280;42618;51.226;4.910;2022-07-29T00:07:18;49390.09;;;-146.94;51.69
56737;BME280;42618;51.226;4.910;2022-07-29T00:09:45;49396.09;;;-146.94;51.64
56737;BME280;42618;51.226;4.910;2022-07-29T00:12:22;49424.00;;;-146.94;51.77
56737;BME280;42618;51.226;4.910;2022-07-29T00:14:53;49431.97;;;-146.94;51.58
56737;BME280;42618;51.226;4.910;2022-07-29T00:17:21;49416.03;;;-146.94;51.34
56737;BME280;42618;51.226;4.910;2022-07-29T00:19:48;49390.09;;;-146.94;51.30
56737;BME280;42618;51.226;4.910;2022-07-29T00:22:14;49416.03;;;-146.94;51.31
56737;BME280;42618;51.226;4.910;2022-07-29T00:24:41;49402.06;;;-146.94;51.53
56737;BME280;42618;51.226;4.910;2022-07-29T00:27:08;49364.19;;;-146.94;51.20
56737;BME280;42618;51.226;4.910;2022-07-29T00:29:35;49390.09;;;-146.94;51.84
56737;BME280;42618;51.226;4.910;2022-07-29T00:32:02;49404.06;;;-146.94;52.08
56737;BME280;42618;51.226;4.910;2022-07-29T00:34:29;49435.97;;;-146.94;50.37
56737;BME280;42618;51.226;4.910;2022-07-29T00:37:14;49402.06;;;-146.94;51.13
56737;BME280;42618;51.226;4.910;2022-07-29T00:39:41;49388.13;;;-146.94;51.47
56737;BME280;42618;51.226;4.910;2022-07-29T00:42:08;49422.00;;;-146.94;51.28
56737;BME280;42618;51.226;4.910;2022-07-29T00:44:36;49420.00;;;-146.94;53.17
56737;BME280;42618;51.226;4.910;2022-07-29T00:47:03;49400.06;;;-146.94;51.56
56737;BME280;42618;51.226;4.910;2022-07-29T00:49:30;49420.00;;;-146.94;51.91
56737;BME280;42618;51.226;4.910;2022-07-29T00:51:57;49396.09;;;-146.94;52.29
56737;BME280;42618;51.226;4.910;2022-07-29T00:54:23;49396.09;;;-146.94;52.16
56737;BME280;42618;51.226;4.910;2022-07-29T00:56:50;49396.09;;;-146.94;52.63
56737;BME280;42618;51.226;4.910;2022-07-29T00:59:17;49418.00;;;-146.94;53.31
56737;BME280;42618;51.226;4.910;2022-07-29T01:01:44;49388.13;;;-146.94;53.02
56737;BME280;42618;51.226;4.910;2022-07-29T01:04:10;49382.13;;;-146.94;52.48
56737;BME280;42618;51.226;4.910;2022-07-29T01:06:40;49416.03;;;-146.94;53.72
56737;BME280;42618;51.226;4.910;2022-07-29T01:09:07;49427.97;;;-146.94;52.53
56737;BME280;42618;51.226;4.910;2022-07-29T01:11:35;49396.09;;;-146.94;52.85
56737;BME280;42618;51.226;4.910;2022-07-29T01:14:06;49392.09;;;-146.94;52.50
56737;BME280;42618;51.226;4.910;2022-07-29T01:16:41;49433.97;;;-146.94;53.20
56737;BME280;42618;51.226;4.910;2022-07-29T01:21:59;49404.06;;;-146.94;54.24
56737;BME280;42618;51.226;4.910;2022-07-29T01:25:03;49412.03;;;-146.94;53.72
56737;BME280;42618;51.226;4.910;2022-07-29T01:30:30;49420.00;;;-146.94;53.87
56737;BME280;42618;51.226;4.910;2022-07-29T01:33:03;49420.00;;;-146.94;54.01
56737;BME280;42618;51.226;4.910;2022-07-29T01:35:38;49380.13;;;-146.94;54.23
56737;BME280;42618;51.226;4.910;2022-07-29T01:40:40;49437.94;;;-146.94;53.66
56737;BME280;42618;51.226;4.910;2022-07-29T01:43:11;49404.06;;;-146.94;54.83
56737;BME280;42618;51.226;4.910;2022-07-29T01:45:58;49420.00;;;-146.94;55.18
56737;BME280;42618;51.226;4.910;2022-07-29T01:48:33;49402.06;;;-146.94;54.46
56737;BME280;42618;51.226;4.910;2022-07-29T01:51:07;49404.06;;;-146.94;54.62
56737;BME280;42618;51.226;4.910;2022-07-29T01:54:04;49424.00;;;-146.94;55.16
56737;BME280;42618;51.226;4.910;2022-07-29T01:56:35;49433.97;;;-146.94;55.37
56737;BME280;42618;51.226;4.910;2022-07-29T01:59:04;49433.97;;;-146.94;55.21
56737;BME280;42618;51.226;4.910;2022-07-29T02:01:33;49422.00;;;-146.94;55.36
56737;BME280;42618;51.226;4.910;2022-07-29T02:04:06;49424.00;;;-146.94;55.59
56737;BME280;42618;51.226;4.910;2022-07-29T02:06:35;49431.97;;;-146.94;55.02
56737;BME280;42618;51.226;4.910;2022-07-29T02:09:04;49463.88;;;-146.94;55.00
56737;BME280;42618;51.226;4.910;2022-07-29T02:11:34;49427.97;;;-146.94;56.11
56737;BME280;42618;51.226;4.910;2022-07-29T02:14:01;49431.97;;;-146.94;56.38
56737;BME280;42618;51.226;4.910;2022-07-29T02:16:31;49433.97;;;-146.94;56.71
56737;BME280;42618;51.226;4.910;2022-07-29T02:19:01;49426.00;;;-146.94;57.28
56737;BME280;42618;51.226;4.910;2022-07-29T02:21:30;49420.00;;;-146.94;56.22
56737;BME280;42618;51.226;4.910;2022-07-29T02:24:01;49414.03;;;-146.94;56.78
56737;BME280;42618;51.226;4.910;2022-07-29T02:26:29;49453.91;;;-146.94;56.99
56737;BME280;42618;51.226;4.910;2022-07-29T02:28:58;49431.97;;;-146.94;57.15
56737;BME280;42618;51.226;4.910;2022-07-29T02:31:30;49424.00;;;-146.94;57.17
56737;BME280;42618;51.226;4.910;2022-07-29T02:34:00;49424.00;;;-146.94;57.49
56737;BME280;42618;51.226;4.910;2022-07-29T02:36:29;49416.03;;;-146.94;57.56
56737;BME280;42618;51.226;4.910;2022-07-29T02:38:56;49445.94;;;-146.94;57.32
56737;BME280;42618;51.226;4.910;2022-07-29T02:41:28;49427.97;;;-146.94;57.39
56737;BME280;42618;51.226;4.910;2022-07-29T02:44:06;49449.91;;;-146.94;58.57
56737;BME280;42618;51.226;4.910;2022-07-29T02:46:37;49422.00;;;-146.94;58.45
56737;BME280;42618;51.226;4.910;2022-07-29T02:52:01;49439.94;;;-146.94;58.33
56737;BME280;42618;51.226;4.910;2022-07-29T02:57:30;49451.91;;;-146.94;59.19
56737;BME280;42618;51.226;4.910;2022-07-29T03:00:02;49422.00;;;-146.94;59.45
56737;BME280;42618;51.226;4.910;2022-07-29T03:02:35;49429.97;;;-146.94;59.23
56737;BME280;42618;51.226;4.910;2022-07-29T03:05:04;49416.03;;;-146.94;59.97
56737;BME280;42618;51.226;4.910;2022-07-29T03:07:34;49426.00;;;-146.94;59.57
56737;BME280;42618;51.226;4.910;2022-07-29T03:10:03;49416.03;;;-146.94;59.35
56737;BME280;42618;51.226;4.910;2022-07-29T03:12:36;49435.97;;;-146.94;59.67
56737;BME280;42618;51.226;4.910;2022-07-29T03:15:04;49463.88;;;-146.94;60.19
56737;BME280;42618;51.226;4.910;2022-07-29T03:17:31;49463.88;;;-146.94;60.74
56737;BME280;42618;51.226;4.910;2022-07-29T03:19:59;49455.88;;;-146.94;60.88
56737;BME280;42618;51.226;4.910;2022-07-29T03:22:26;49449.91;;;-146.94;61.91
56737;BME280;42618;51.226;4.910;2022-07-29T03:24:52;49457.88;;;-146.94;61.67
56737;BME280;42618;51.226;4.910;2022-07-29T03:27:19;49435.97;;;-146.94;62.10
56737;BME280;42618;51.226;4.910;2022-07-29T03:29:46;49447.91;;;-146.94;62.17
56737;BME280;42618;51.226;4.910;2022-07-29T03:32:16;49461.88;;;-146.94;62.73
56737;BME280;42618;51.226;4.910;2022-07-29T03:34:49;49455.88;;;-146.94;63.01
56737;BME280;42618;51.226;4.910;2022-07-29T03:37:16;49463.88;;;-146.94;63.33
56737;BME280;42618;51.226;4.910;2022-07-29T03:39:42;49431.97;;;-146.94;63.03
56737;BME280;42618;51.226;4.910;2022-07-29T03:42:13;49471.84;;;-146.94;63.33
56737;BME280;42618;51.226;4.910;2022-07-29T03:44:42;49503.72;;;-146.94;63.48
56737;BME280;42618;51.226;4.910;2022-07-29T03:47:11;49445.94;;;-146.94;63.15
56737;BME280;42618;51.226;4.910;2022-07-29T03:49:40;49455.88;;;-146.94;63.07
56737;BME280;42618;51.226;4.910;2022-07-29T03:52:08;49453.91;;;-146.94;63.22
56737;BME280;42618;51.226;4.910;2022-07-29T03:54:35;49455.88;;;-146.94;63.92
56737;BME280;42618;51.226;4.910;2022-07-29T03:57:03;49479.81;;;-146.94;64.13
56737;BME280;42618;51.226;4.910;2022-07-29T03:59:32;49455.88;;;-146.94;64.12
56737;BME280;42618;51.226;4.910;2022-07-29T04:02:02;49449.91;;;-146.94;64.04
56737;BME280;42618;51.226;4.910;2022-07-29T04:04:32;49433.97;;;-146.94;64.18
56737;BME280;42618;51.226;4.910;2022-07-29T04:07:00;49429.97;;;-146.94;64.22
56737;BME280;42618;51.226;4.910;2022-07-29T04:09:27;49469.84;;;-146.94;63.99
56737;BME280;42618;51.226;4.910;2022-07-29T04:11:53;49487.78;;;-146.94;64.00
56737;BME280;42618;51.226;4.910;2022-07-29T04:14:30;49459.88;;;-146.94;64.22
56737;BME280;42618;51.226;4.910;2022-07-29T04:16:57;49495.75;;;-146.94;64.22
56737;BME280;42618;51.226;4.910;2022-07-29T04:19:23;49459.88;;;-146.94;63.78
56737;BME280;42618;51.226;4.910;2022-07-29T04:21:50;49467.84;;;-146.94;64.33
56737;BME280;42618;51.226;4.910;2022-07-29T04:24:17;49429.97;;;-146.94;64.05
56737;BME280;42618;51.226;4.910;2022-07-29T04:26:46;49439.94;;;-146.94;64.37
56737;BME280;42618;51.226;4.910;2022-07-29T04:29:12;49455.88;;;-146.94;63.98
56737;BME280;42618;51.226;4.910;2022-07-29T04:31:40;49475.81;;;-146.94;64.08
56737;BME280;42618;51.226;4.910;2022-07-29T04:34:07;49467.84;;;-146.94;64.02
56737;BME280;42618;51.226;4.910;2022-07-29T04:36:35;49457.88;;;-146.94;64.01
56737;BME280;42618;51.226;4.910;2022-07-29T04:39:02;49491.78;;;-146.94;63.99
56737;BME280;42618;51.226;4.910;2022-07-29T04:41:28;49491.78;;;-146.94;63.44
56737;BME280;42618;51.226;4.910;2022-07-29T04:43:59;49441.94;;;-146.94;63.76
56737;BME280;42618;51.226;4.910;2022-07-29T04:46:27;49429.97;;;-146.94;63.23
56737;BME280;42618;51.226;4.910;2022-07-29T04:48:54;49441.94;;;-146.94;64.09
56737;BME280;42618;51.226;4.910;2022-07-29T04:51:21;49420.00;;;-146.94;63.92
56737;BME280;42618;51.226;4.910;2022-07-29T04:53:48;49451.91;;;-146.94;63.13
56737;BME280;42618;51.226;4.910;2022-07-29T04:56:15;49443.94;;;-146.94;63.20
56737;BME280;42618;51.226;4.910;2022-07-29T04:58:41;49453.91;;;-146.94;63.79
56737;BME280;42618;51.226;4.910;2022-07-29T05:01:08;49457.88;;;-146.94;63.08
56737;BME280;42618;51.226;4.910;2022-07-29T05:03:35;49459.88;;;-146.94;62.61
56737;BME280;42618;51.226;4.910;2022-07-29T05:06:01;49473.84;;;-146.94;62.59
56737;BME280;42618;51.226;4.910;2022-07-29T05:08:28;49469.84;;;-146.94;62.92
56737;BME280;42618;51.226;4.910;2022-07-29T05:10:55;49449.91;;;-146.94;62.38
56737;BME280;42618;51.226;4.910;2022-07-29T05:13:21;49453.91;;;-146.94;62.29
56737;BME280;42618;51.226;4.910;2022-07-29T05:15:48;49435.97;;;-146.94;62.76
56737;BME280;42618;51.226;4.910;2022-07-29T05:18:15;49441.94;;;-146.94;62.88
56737;BME280;42618;51.226;4.910;2022-07-29T05:20:42;49459.88;;;-146.94;63.07
56737;BME280;42618;51.226;4.910;2022-07-29T05:23:08;49463.88;;;-146.94;62.25
56737;BME280;42618;51.226;4.910;2022-07-29T05:25:39;49439.94;;;-146.94;62.48
56737;BME280;42618;51.226;4.910;2022-07-29T05:28:11;49447.91;;;-146.94;62.21
56737;BME280;42618;51.226;4.910;2022-07-29T05:30:37;49424.00;;;-146.94;62.29
56737;BME280;42618;51.226;4.910;2022-07-29T05:33:04;49439.94;;;-146.94;62.35
56737;BME280;42618;51.226;4.910;2022-07-29T05:35:31;49441.94;;;-146.94;62.23
56737;BME280;42618;51.226;4.910;2022-07-29T05:37:57;49426.00;;;-146.94;62.26
56737;BME280;42618;51.226;4.910;2022-07-29T05:40:24;49427.97;;;-146.94;63.37
56737;BME280;42618;51.226;4.910;2022-07-29T05:42:51;49414.03;;;-146.94;63.43
56737;BME280;42618;51.226;4.910;2022-07-29T05:45:18;49424.00;;;-146.94;65.10
56737;BME280;42618;51.226;4.910;2022-07-29T05:47:44;49451.91;;;-146.94;65.28
56737;BME280;42618;51.226;4.910;2022-07-29T05:50:12;49463.88;;;-146.94;64.22
56737;BME280;42618;51.226;4.910;2022-07-29T05:52:38;49451.91;;;-146.94;64.44
56737;BME280;42618;51.226;4.910;2022-07-29T05:55:05;49431.97;;;-146.94;64.28
56737;BME280;42618;51.226;4.910;2022-07-29T05:57:32;49427.97;;;-146.94;64.48
56737;BME280;42618;51.226;4.910;2022-07-29T05:59:59;49433.97;;;-146.94;63.81
56737;BME280;42618;51.226;4.910;2022-07-29T06:02:26;49455.88;;;-146.94;64.08
56737;BME280;42618;51.226;4.910;2022-07-29T06:04:53;49463.88;;;-146.94;64.37
56737;BME280;42618;51.226;4.910;2022-07-29T06:07:20;49447.91;;;-146.94;64.02
56737;BME280;42618;51.226;4.910;2022-07-29T06:09:47;49441.94;;;-146.94;63.82
56737;BME280;42618;51.226;4.910;2022-07-29T06:12:14;49439.94;;;-146.94;63.35
56737;BME280;42618;51.226;4.910;2022-07-29T06:14:40;49418.00;;;-146.94;63.17
56737;BME280;42618;51.226;4.910;2022-07-29T06:17:07;49455.88;;;-146.94;62.74
56737;BME280;42618;51.226;4.910;2022-07-29T06:19:35;49471.84;;;-146.94;62.66
56737;BME280;42618;51.226;4.910;2022-07-29T06:22:03;49412.03;;;-146.94;62.66
56737;BME280;42618;51.226;4.910;2022-07-29T06:24:29;49418.00;;;-146.94;62.35
56737;BME280;42618;51.226;4.910;2022-07-29T06:26:57;49455.88;;;-146.94;61.79
56737;BME280;42618;51.226;4.910;2022-07-29T06:29:23;49443.94;;;-146.94;61.76
56737;BME280;42618;51.226;4.910;2022-07-29T06:31:50;49416.03;;;-146.94;61.29
56737;BME280;42618;51.226;4.910;2022-07-29T06:34:17;49457.88;;;-146.94;61.66
56737;BME280;42618;51.226;4.910;2022-07-29T06:36:45;49457.88;;;-146.94;61.61
56737;BME280;42618;51.226;4.910;2022-07-29T06:39:12;49424.00;;;-146.94;61.60
56737;BME280;42618;51.226;4.910;2022-07-29T06:41:39;49414.03;;;-146.94;60.96
56737;BME280;42618;51.226;4.910;2022-07-29T06:44:08;49445.94;;;-146.94;60.64
56737;BME280;42618;51.226;4.910;2022-07-29T06:46:35;49400.06;;;-146.94;60.08
56737;BME280;42618;51.226;4.910;2022-07-29T06:49:03;49433.97;;;-146.94;60.49
56737;BME280;42618;51.226;4.910;2022-07-29T06:51:30;49431.97;;;-146.94;60.38
56737;BME280;42618;51.226;4.910;2022-07-29T06:53:57;49435.97;;;-146.94;60.28
56737;BME280;42618;51.226;4.910;2022-07-29T06:56:38;49422.00;;;-146.94;60.33
56737;BME280;42618;51.226;4.910;2022-07-29T06:59:09;49449.91;;;-146.94;60.24
56737;BME280;42618;51.226;4.910;2022-07-29T07:01:37;49435.97;;;-146.94;59.63
56737;BME280;42618;51.226;4.910;2022-07-29T07:04:05;49447.91;;;-146.94;59.66
56737;BME280;42618;51.226;4.910;2022-07-29T07:06:32;49427.97;;;-146.94;59.35
56737;BME280;42618;51.226;4.910;2022-07-29T07:08:58;49404.06;;;-146.94;59.28
56737;BME280;42618;51.226;4.910;2022-07-29T07:11:25;49447.91;;;-146.94;60.05
56737;BME280;42618;51.226;4.910;2022-07-29T07:13:52;49463.88;;;-146.94;59.82
56737;BME280;42618;51.226;4.910;2022-07-29T07:16:22;49453.91;;;-146.94;59.75
56737;BME280;42618;51.226;4.910;2022-07-29T07:18:49;49455.88;;;-146.94;59.93
56737;BME280;42618;51.226;4.910;2022-07-29T07:21:15;49418.00;;;-146.94;59.50
56737;BME280;42618;51.226;4.910;2022-07-29T07:23:45;49396.09;;;-146.94;58.72
56737;BME280;42618;51.226;4.910;2022-07-29T07:26:12;49427.97;;;-146.94;60.02
56737;BME280;42618;51.226;4.910;2022-07-29T07:28:39;49427.97;;;-146.94;58.52
56737;BME280;42618;51.226;4.910;2022-07-29T07:31:05;49424.00;;;-146.94;58.48
56737;BME280;42618;51.226;4.910;2022-07-29T07:33:32;49418.00;;;-146.94;58.43
56737;BME280;42618;51.226;4.910;2022-07-29T07:35:59;49431.97;;;-146.94;58.38
56737;BME280;42618;51.226;4.910;2022-07-29T07:38:25;49437.94;;;-146.94;58.08
56737;BME280;42618;51.226;4.910;2022-07-29T07:40:52;49437.94;;;-146.94;57.26
56737;BME280;42618;51.226;4.910;2022-07-29T07:43:19;49414.03;;;-146.94;57.57
56737;BME280;42618;51.226;4.910;2022-07-29T07:45:46;49416.03;;;-146.94;57.77
56737;BME280;42618;51.226;4.910;2022-07-29T07:48:12;49400.06;;;-146.94;56.67
56737;BME280;42618;51.226;4.910;2022-07-29T07:50:39;49410.03;;;-146.94;56.55
56737;BME280;42618;51.226;4.910;2022-07-29T07:53:06;49414.03;;;-146.94;56.20
56737;BME280;42618;51.226;4.910;2022-07-29T07:55:33;49392.09;;;-146.94;55.33
56737;BME280;42618;51.226;4.910;2022-07-29T07:58:19;49408.06;;;-146.94;54.84
56737;BME280;42618;51.226;4.910;2022-07-29T08:00:46;49404.06;;;-146.94;54.60
56737;BME280;42618;51.226;4.910;2022-07-29T08:03:13;49378.16;;;-146.94;54.87
56737;BME280;42618;51.226;4.910;2022-07-29T08:05:42;49410.03;;;-146.94;53.73
56737;BME280;42618;51.226;4.910;2022-07-29T08:08:09;49410.03;;;-146.94;53.51
56737;BME280;42618;51.226;4.910;2022-07-29T08:10:36;49427.97;;;-146.94;53.81
56737;BME280;42618;51.226;4.910;2022-07-29T08:13:23;49360.22;;;-146.94;54.46
56737;BME280;42618;51.226;4.910;2022-07-29T08:15:50;49429.97;;;-146.94;53.95
56737;BME280;42618;51.226;4.910;2022-07-29T08:18:38;49412.03;;;-146.94;52.61
56737;BME280;42618;51.226;4.910;2022-07-29T08:21:06;49451.91;;;-146.94;52.33
56737;BME280;42618;51.226;4.910;2022-07-29T08:23:33;49394.09;;;-146.94;52.34
56737;BME280;42618;51.226;4.910;2022-07-29T08:26:14;49386.13;;;-146.94;52.24
56737;BME280;42618;51.226;4.910;2022-07-29T08:28:42;49427.97;;;-146.94;50.50
56737;BME280;42618;51.226;4.910;2022-07-29T08:31:13;49404.06;;;-146.94;50.95
56737;BME280;42618;51.226;4.910;2022-07-29T08:33:40;49439.94;;;-146.94;50.68
56737;BME280;42618;51.226;4.910;2022-07-29T08:36:07;49392.09;;;-146.94;50.72
56737;BME280;42618;51.226;4.910;2022-07-29T08:38:34;49374.16;;;-146.94;50.08
56737;BME280;42618;51.226;4.910;2022-07-29T08:41:01;49392.09;;;-146.94;49.47
56737;BME280;42618;51.226;4.910;2022-07-29T08:43:28;49376.16;;;-146.94;49.50
56737;BME280;42618;51.226;4.910;2022-07-29T08:45:55;49408.06;;;-146.94;48.32
56737;BME280;42618;51.226;4.910;2022-07-29T08:48:23;49386.13;;;-146.94;48.53
56737;BME280;42618;51.226;4.910;2022-07-29T08:50:54;49431.97;;;-146.94;48.73
56737;BME280;42618;51.226;4.910;2022-07-29T08:53:24;49372.16;;;-146.94;48.85
56737;BME280;42618;51.226;4.910;2022-07-29T08:55:52;49372.16;;;-146.94;49.12
56737;BME280;42618;51.226;4.910;2022-07-29T08:58:20;49382.13;;;-146.94;48.54
56737;BME280;42618;51.226;4.910;2022-07-29T09:00:52;49378.16;;;-146.94;48.62
56737;BME280;42618;51.226;4.910;2022-07-29T09:03:23;49388.13;;;-146.94;48.16
56737;BME280;42618;51.226;4.910;2022-07-29T09:05:51;49374.16;;;-146.94;47.36
56737;BME280;42618;51.226;4.910;2022-07-29T09:08:17;49368.19;;;-146.94;46.86
56737;BME280;42618;51.226;4.910;2022-07-29T09:10:45;49388.13;;;-146.94;46.57
56737;BME280;42618;51.226;4.910;2022-07-29T09:13:11;49360.22;;;-146.94;45.58
56737;BME280;42618;51.226;4.910;2022-07-29T09:15:38;49372.16;;;-146.94;46.02
56737;BME280;42618;51.226;4.910;2022-07-29T09:18:05;49386.13;;;-146.94;45.86
56737;BME280;42618;51.226;4.910;2022-07-29T09:20:31;49360.22;;;-146.94;45.58
56737;BME280;42618;51.226;4.910;2022-07-29T09:23:17;49364.19;;;-146.94;44.23
56737;BME280;42618;51.226;4.910;2022-07-29T09:25:50;49356.22;;;-146.94;43.73
56737;BME280;42618;51.226;4.910;2022-07-29T09:28:17;49344.25;;;-146.94;43.79
56737;BME280;42618;51.226;4.910;2022-07-29T09:30:54;49408.06;;;-146.94;43.60
56737;BME280;42618;51.226;4.910;2022-07-29T09:33:23;49356.22;;;-146.94;43.01
56737;BME280;42618;51.226;4.910;2022-07-29T09:36:02;49376.16;;;-146.94;43.11
56737;BME280;42618;51.226;4.910;2022-07-29T09:38:31;49356.22;;;-146.94;41.61
56737;BME280;42618;51.226;4.910;2022-07-29T09:41:00;49376.16;;;-146.94;40.89
56737;BME280;42618;51.226;4.910;2022-07-29T09:43:32;49350.25;;;-146.94;40.28
56737;BME280;42618;51.226;4.910;2022-07-29T09:46:12;49336.28;;;-146.94;39.73
56737;BME280;42618;51.226;4.910;2022-07-29T09:48:39;49304.41;;;-146.94;40.89
56737;BME280;42618;51.226;4.910;2022-07-29T09:51:16;49328.31;;;-146.94;40.61
56737;BME280;42618;51.226;4.910;2022-07-29T09:53:46;49340.28;;;-146.94;39.88
56737;BME280;42618;51.226;4.910;2022-07-29T09:56:13;49308.38;;;-146.94;39.83
56737;BME280;42618;51.226;4.910;2022-07-29T09:58:40;49332.31;;;-146.94;39.31
56737;BME280;42618;51.226;4.910;2022-07-29T10:01:07;49314.34;;;-146.94;38.05
56737;BME280;42618;51.226;4.910;2022-07-29T10:03:50;49324.31;;;-146.94;37.27
56737;BME280;42618;51.226;4.910;2022-07-29T10:06:17;49324.31;;;-146.94;37.22
56737;BME280;42618;51.226;4.910;2022-07-29T10:08:44;49332.31;;;-146.94;37.20
56737;BME280;42618;51.226;4.910;2022-07-29T10:11:13;49328.31;;;-146.94;37.59
56737;BME280;42618;51.226;4.910;2022-07-29T10:13:41;49308.38;;;-146.94;37.15
56737;BME280;42618;51.226;4.910;2022-07-29T10:16:08;49360.22;;;-146.94;37.35
56737;BME280;42618;51.226;4.910;2022-07-29T10:18:35;49334.28;;;-146.94;37.99
56737;BME280;42618;51.226;4.910;2022-07-29T10:21:04;49310.38;;;-146.94;36.68
56737;BME280;42618;51.226;4.910;2022-07-29T10:23:31;49332.31;;;-146.94;37.12
56737;BME280;42618;51.226;4.910;2022-07-29T10:26:12;49308.38;;;-146.94;35.50
56737;BME280;42618;51.226;4.910;2022-07-29T10:28:39;49314.34;;;-146.94;35.81
56737;BME280;42618;51.226;4.910;2022-07-29T10:31:06;49296.41;;;-146.94;36.04
56737;BME280;42618;51.226;4.910;2022-07-29T10:33:51;49300.41;;;-146.94;35.81
56737;BME280;42618;51.226;4.910;2022-07-29T10:36:54;49292.44;;;-146.94;34.91
56737;BME280;42618;51.226;4.910;2022-07-29T10:44:46;49300.41;;;-146.94;34.52
56737;BME280;42618;51.226;4.910;2022-07-29T10:47:39;49324.31;;;-146.94;34.17
56737;BME280;42618;51.226;4.910;2022-07-29T10:50:06;49302.41;;;-146.94;34.25
56737;BME280;42618;51.226;4.910;2022-07-29T10:52:52;49292.44;;;-146.94;34.50
56737;BME280;42618;51.226;4.910;2022-07-29T10:55:39;49304.41;;;-146.94;34.72
56737;BME280;42618;51.226;4.910;2022-07-29T10:58:14;49260.53;;;-146.94;33.64
56737;BME280;42618;51.226;4.910;2022-07-29T11:00:44;49286.44;;;-146.94;34.29
56737;BME280;42618;51.226;4.910;2022-07-29T11:06:17;49312.38;;;-146.94;33.61
56737;BME280;42618;51.226;4.910;2022-07-29T11:09:30;49276.50;;;-146.94;33.26
56737;BME280;42618;51.226;4.910;2022-07-29T11:12:04;49276.50;;;-146.94;33.42
56737;BME280;42618;51.226;4.910;2022-07-29T11:14:59;49304.41;;;-146.94;33.19
56737;BME280;42618;51.226;4.910;2022-07-29T11:17:27;49280.47;;;-146.94;33.25
56737;BME280;42618;51.226;4.910;2022-07-29T11:20:38;49274.50;;;-146.94;32.35
56737;BME280;42618;51.226;4.910;2022-07-29T11:31:40;49244.59;;;-146.94;32.35
56737;BME280;42618;51.226;4.910;2022-07-29T11:34:29;49258.53;;;-146.94;32.46
56737;BME280;42618;51.226;4.910;2022-07-29T11:39:40;49256.56;;;-146.94;31.80
56737;BME280;42618;51.226;4.910;2022-07-29T11:45:03;49254.56;;;-146.94;31.30
56737;BME280;42618;51.226;4.910;2022-07-29T11:47:54;49264.53;;;-146.94;30.85
56737;BME280;42618;51.226;4.910;2022-07-29T11:50:44;49260.53;;;-146.94;31.27
56737;BME280;42618;51.226;4.910;2022-07-29T11:53:14;49276.50;;;-146.94;30.71
56737;BME280;42618;51.226;4.910;2022-07-29T11:56:01;49266.53;;;-146.94;31.13
56737;BME280;42618;51.226;4.910;2022-07-29T11:58:29;49272.50;;;-146.94;30.95
56737;BME280;42618;51.226;4.910;2022-07-29T12:00:56;49284.47;;;-146.94;30.76
56737;BME280;42618;51.226;4.910;2022-07-29T12:03:25;49274.50;;;-146.94;30.45
56737;BME280;42618;51.226;4.910;2022-07-29T12:06:12;49228.66;;;-146.94;29.92
56737;BME280;42618;51.226;4.910;2022-07-29T12:08:44;49228.66;;;-146.94;29.70
56737;BME280;42618;51.226;4.910;2022-07-29T12:11:20;49250.56;;;-146.94;30.17
56737;BME280;42618;51.226;4.910;2022-07-29T12:13:52;49268.50;;;-146.94;30.37
56737;BME280;42618;51.226;4.910;2022-07-29T12:16:20;49268.50;;;-146.94;31.24
56737;BME280;42618;51.226;4.910;2022-07-29T12:18:59;49256.56;;;-146.94;30.92
56737;BME280;42618;51.226;4.910;2022-07-29T12:21:28;49264.53;;;-146.94;30.88
56737;BME280;42618;51.226;4.910;2022-07-29T12:23:56;49244.59;;;-146.94;31.66
56737;BME280;42618;51.226;4.910;2022-07-29T12:26:34;49256.56;;;-146.94;30.81
56737;BME280;42618;51.226;4.910;2022-07-29T12:29:02;49232.63;;;-146.94;30.74
56737;BME280;42618;51.226;4.910;2022-07-29T12:31:29;49198.75;;;-146.94;30.05
56737;BME280;42618;51.226;4.910;2022-07-29T12:34:13;49224.66;;;-146.94;29.94
56737;BME280;42618;51.226;4.910;2022-07-29T12:36:42;49242.59;;;-146.94;29.78
56737;BME280;42618;51.226;4.910;2022-07-29T12:39:10;49248.59;;;-146.94;29.66
56737;BME280;42618;51.226;4.910;2022-07-29T12:41:38;49268.50;;;-146.94;30.66
56737;BME280;42618;51.226;4.910;2022-07-29T12:44:05;49256.56;;;-146.94;31.08
56737;BME280;42618;51.226;4.910;2022-07-29T12:46:32;49282.47;;;-146.94;30.70
56737;BME280;42618;51.226;4.910;2022-07-29T12:48:59;49276.50;;;-146.94;30.32
56737;BME280;42618;51.226;4.910;2022-07-29T12:51:37;49270.50;;;-146.94;29.85
56737;BME280;42618;51.226;4.910;2022-07-29T12:54:05;49224.66;;;-146.94;29.72
56737;BME280;42618;51.226;4.910;2022-07-29T12:56:33;49276.50;;;-146.94;30.21
56737;BME280;42618;51.226;4.910;2022-07-29T13:01:39;49264.53;;;-146.94;30.52
56737;BME280;42618;51.226;4.910;2022-07-29T13:04:06;49264.53;;;-146.94;31.03
56737;BME280;42618;51.226;4.910;2022-07-29T13:11:44;49280.47;;;-146.94;30.75
56737;BME280;42618;51.226;4.910;2022-07-29T13:14:35;49300.41;;;-146.94;30.99
56737;BME280;42618;51.226;4.910;2022-07-29T13:22:29;49254.56;;;-146.94;31.00
56737;BME280;42618;51.226;4.910;2022-07-29T13:24:58;49272.50;;;-146.94;30.67
56737;BME280;42618;51.226;4.910;2022-07-29T13:27:26;49228.66;;;-146.94;30.02
56737;BME280;42618;51.226;4.910;2022-07-29T13:29:55;49260.53;;;-146.94;29.38
56737;BME280;42618;51.226;4.910;2022-07-29T13:32:25;49232.63;;;-146.94;29.53
56737;BME280;42618;51.226;4.910;2022-07-29T13:34:59;49278.47;;;-146.94;29.44
56737;BME280;42618;51.226;4.910;2022-07-29T13:37:30;49218.69;;;-146.94;29.16
56737;BME280;42618;51.226;4.910;2022-07-29T13:39:59;49276.50;;;-146.94;29.70
56737;BME280;42618;51.226;4.910;2022-07-29T13:42:29;49218.69;;;-146.94;29.78
56737;BME280;42618;51.226;4.910;2022-07-29T13:44:55;49228.66;;;-146.94;29.30
56737;BME280;42618;51.226;4.910;2022-07-29T13:47:23;49224.66;;;-146.94;28.99